sensor_id;sensor_type;location;lat;lon;timestamp;pressure;altitude;pressure_sealevel;temperature;humidity
54924;BME280;40825;52.270;20.984;2022-12-18T00:01:05;101907.11;;;-5.22;84.20
54924;BME280;40825;52.270;20.984;2022-12-18T00:03:42;101909.13;;;-5.20;84.22
54924;BME280;40825;52.270;20.984;2022-12-18T00:06:08;101912.42;;;-5.20;84.24
54924;BME280;40825;52.270;20.984;2022-12-18T00:08:34;101914.90;;;-5.21;84.32
54924;BME280;40825;52.270;20.984;2022-12-18T00:11:04;101915.73;;;-5.20;84.35
54924;BME280;40825;52.270;20.984;2022-12-18T00:13:30;101923.48;;;-5.18;84.37
54924;BME280;40825;52.270;20.984;2022-12-18T00:16:02;101919.69;;;-5.19;84.25
54924;BME280;40825;52.270;20.984;2022-12-18T00:18:28;101923.67;;;-5.19;84.32
54924;BME280;40825;52.270;20.984;2022-12-18T00:20:54;101926.09;;;-5.19;84.35
54924;BME280;40825;52.270;20.984;2022-12-18T00:23:23;101930.94;;;-5.18;84.41
54924;BME280;40825;52.270;20.984;2022-12-18T00:25:49;101940.23;;;-5.15;84.48
54924;BME280;40825;52.270;20.984;2022-12-18T00:28:14;101941.20;;;-5.14;84.48
54924;BME280;40825;52.270;20.984;2022-12-18T00:30:39;101943.06;;;-5.12;84.45
54924;BME280;40825;52.270;20.984;2022-12-18T00:33:05;101944.22;;;-5.11;84.42
54924;BME280;40825;52.270;20.984;2022-12-18T00:35:31;101944.36;;;-5.09;84.40
54924;BME280;40825;52.270;20.984;2022-12-18T00:37:56;101945.89;;;-5.08;84.42
54924;BME280;40825;52.270;20.984;2022-12-18T00:40:22;101955.58;;;-5.07;84.45
54924;BME280;40825;52.270;20.984;2022-12-18T00:42:47;101961.09;;;-5.05;84.43
54924;BME280;40825;52.270;20.984;2022-12-18T00:47:48;101962.36;;;-5.03;84.47
54924;BME280;40825;52.270;20.984;2022-12-18T00:50:14;101965.45;;;-5.01;84.50
54924;BME280;40825;52.270;20.984;2022-12-18T00:52:39;101970.09;;;-5.00;84.51
54924;BME280;40825;52.270;20.984;2022-12-18T00:55:05;101967.98;;;-4.99;84.50
54924;BME280;40825;52.270;20.984;2022-12-18T00:57:30;101964.97;;;-4.97;84.57
54924;BME280;40825;52.270;20.984;2022-12-18T00:59:56;101970.45;;;-4.94;84.58
54924;BME280;40825;52.270;20.984;2022-12-18T01:02:21;101976.95;;;-4.91;84.49
54924;BME280;40825;52.270;20.984;2022-12-18T01:04:46;101975.34;;;-4.90;84.44
54924;BME280;40825;52.270;20.984;2022-12-18T01:07:12;101981.73;;;-4.89;84.50
54924;BME280;40825;52.270;20.984;2022-12-18T01:09:37;101980.31;;;-4.88;84.49
54924;BME280;40825;52.270;20.984;2022-12-18T01:12:03;101986.18;;;-4.87;84.53
54924;BME280;40825;52.270;20.984;2022-12-18T01:14:28;101986.34;;;-4.87;84.36
54924;BME280;40825;52.270;20.984;2022-12-18T01:16:54;101986.65;;;-4.86;84.40
54924;BME280;40825;52.270;20.984;2022-12-18T01:19:19;101985.27;;;-4.86;84.38
54924;BME280;40825;52.270;20.984;2022-12-18T01:21:45;101990.82;;;-4.86;84.40
54924;BME280;40825;52.270;20.984;2022-12-18T01:24:11;101992.73;;;-4.86;84.44
54924;BME280;40825;52.270;20.984;2022-12-18T01:26:37;101991.34;;;-4.86;84.39
54924;BME280;40825;52.270;20.984;2022-12-18T01:29:02;101991.14;;;-4.85;84.43
54924;BME280;40825;52.270;20.984;2022-12-18T01:31:32;102000.32;;;-4.84;84.33
54924;BME280;40825;52.270;20.984;2022-12-18T01:33:59;102009.50;;;-4.83;84.23
54924;BME280;40825;52.270;20.984;2022-12-18T01:36:33;102019.63;;;-4.85;84.22
54924;BME280;40825;52.270;20.984;2022-12-18T01:39:01;102022.24;;;-4.85;84.35
54924;BME280;40825;52.270;20.984;2022-12-18T01:41:31;102028.09;;;-4.83;84.22
54924;BME280;40825;52.270;20.984;2022-12-18T01:45:36;102031.95;;;-4.85;84.22
54924;BME280;40825;52.270;20.984;2022-12-18T01:47:35;102034.92;;;-4.85;84.34
54924;BME280;40825;52.270;20.984;2022-12-18T01:50:08;102042.56;;;-4.85;84.15
54924;BME280;40825;52.270;20.984;2022-12-18T01:52:34;102040.13;;;-4.86;84.30
54924;BME280;40825;52.270;20.984;2022-12-18T01:55:03;102042.52;;;-4.84;84.28
54924;BME280;40825;52.270;20.984;2022-12-18T01:57:30;102039.23;;;-4.84;84.30
54924;BME280;40825;52.270;20.984;2022-12-18T02:00:00;102040.56;;;-4.82;84.27
54924;BME280;40825;52.270;20.984;2022-12-18T02:02:35;102039.23;;;-4.79;84.21
54924;BME280;40825;52.270;20.984;2022-12-18T02:05:02;102046.14;;;-4.83;84.26
54924;BME280;40825;52.270;20.984;2022-12-18T02:07:37;102047.92;;;-4.84;84.30
54924;BME280;40825;52.270;20.984;2022-12-18T02:10:20;102057.31;;;-4.85;84.28
54924;BME280;40825;52.270;20.984;2022-12-18T02:13:07;102058.36;;;-4.85;84.25
54924;BME280;40825;52.270;20.984;2022-12-18T02:15:43;102067.39;;;-4.85;84.25
54924;BME280;40825;52.270;20.984;2022-12-18T02:18:21;102078.39;;;-4.87;84.27
54924;BME280;40825;52.270;20.984;2022-12-18T02:26:34;102093.38;;;-4.88;84.26
54924;BME280;40825;52.270;20.984;2022-12-18T02:29:10;102087.83;;;-4.89;84.14
54924;BME280;40825;52.270;20.984;2022-12-18T02:31:51;102086.80;;;-4.90;84.12
54924;BME280;40825;52.270;20.984;2022-12-18T02:34:19;102089.96;;;-4.90;84.14
54924;BME280;40825;52.270;20.984;2022-12-18T02:36:47;102096.20;;;-4.90;84.14
54924;BME280;40825;52.270;20.984;2022-12-18T02:39:15;102094.29;;;-4.90;84.06
54924;BME280;40825;52.270;20.984;2022-12-18T02:41:41;102103.15;;;-4.90;84.07
54924;BME280;40825;52.270;20.984;2022-12-18T02:44:10;102103.35;;;-4.91;84.16
54924;BME280;40825;52.270;20.984;2022-12-18T02:46:38;102106.36;;;-4.93;84.04
54924;BME280;40825;52.270;20.984;2022-12-18T02:49:31;102110.42;;;-4.95;84.18
54924;BME280;40825;52.270;20.984;2022-12-18T02:52:23;102109.77;;;-4.96;84.16
54924;BME280;40825;52.270;20.984;2022-12-18T02:55:26;102113.13;;;-4.99;84.08
54924;BME280;40825;52.270;20.984;2022-12-18T02:57:56;102118.45;;;-5.02;84.06
54924;BME280;40825;52.270;20.984;2022-12-18T03:03:00;102131.73;;;-5.06;84.03
54924;BME280;40825;52.270;20.984;2022-12-18T03:08:11;102141.02;;;-5.08;83.95
54924;BME280;40825;52.270;20.984;2022-12-18T03:10:45;102145.19;;;-5.08;83.97
54924;BME280;40825;52.270;20.984;2022-12-18T03:13:16;102148.31;;;-5.08;84.04
54924;BME280;40825;52.270;20.984;2022-12-18T03:15:48;102149.17;;;-5.08;84.04
54924;BME280;40825;52.270;20.984;2022-12-18T03:18:35;102157.31;;;-5.07;84.09
54924;BME280;40825;52.270;20.984;2022-12-18T03:21:05;102161.94;;;-5.05;84.04
54924;BME280;40825;52.270;20.984;2022-12-18T03:23:39;102162.30;;;-5.05;83.98
54924;BME280;40825;52.270;20.984;2022-12-18T03:26:10;102165.64;;;-5.07;83.93
54924;BME280;40825;52.270;20.984;2022-12-18T03:28:42;102164.26;;;-5.07;84.03
54924;BME280;40825;52.270;20.984;2022-12-18T03:31:11;102168.38;;;-5.06;84.06
54924;BME280;40825;52.270;20.984;2022-12-18T03:33:43;102171.63;;;-5.04;84.02
54924;BME280;40825;52.270;20.984;2022-12-18T03:36:11;102174.98;;;-5.06;83.98
54924;BME280;40825;52.270;20.984;2022-12-18T03:38:37;102178.55;;;-5.09;84.00
54924;BME280;40825;52.270;20.984;2022-12-18T03:47:14;102188.38;;;-5.19;83.95
54924;BME280;40825;52.270;20.984;2022-12-18T03:54:47;102193.11;;;-5.27;83.90
54924;BME280;40825;52.270;20.984;2022-12-18T03:57:18;102198.67;;;-5.28;83.83
54924;BME280;40825;52.270;20.984;2022-12-18T03:59:47;102198.35;;;-5.28;83.84
54924;BME280;40825;52.270;20.984;2022-12-18T04:02:16;102198.52;;;-5.28;83.84
54924;BME280;40825;52.270;20.984;2022-12-18T04:04:43;102203.39;;;-5.29;83.81
54924;BME280;40825;52.270;20.984;2022-12-18T04:07:10;102210.13;;;-5.27;83.91
54924;BME280;40825;52.270;20.984;2022-12-18T04:09:38;102211.17;;;-5.27;83.85
54924;BME280;40825;52.270;20.984;2022-12-18T04:12:05;102213.05;;;-5.26;83.91
54924;BME280;40825;52.270;20.984;2022-12-18T04:14:30;102212.48;;;-5.24;83.88
54924;BME280;40825;52.270;20.984;2022-12-18T04:17:01;102213.69;;;-5.24;83.84
54924;BME280;40825;52.270;20.984;2022-12-18T04:19:28;102220.45;;;-5.24;83.91
54924;BME280;40825;52.270;20.984;2022-12-18T04:21:53;102228.95;;;-5.24;83.90
54924;BME280;40825;52.270;20.984;2022-12-18T04:24:19;102233.48;;;-5.24;83.85
54924;BME280;40825;52.270;20.984;2022-12-18T04:26:44;102234.37;;;-5.25;83.87
54924;BME280;40825;52.270;20.984;2022-12-18T04:29:10;102249.00;;;-5.27;83.76
54924;BME280;40825;52.270;20.984;2022-12-18T04:31:35;102250.05;;;-5.28;83.85
54924;BME280;40825;52.270;20.984;2022-12-18T04:34:01;102247.70;;;-5.30;83.89
54924;BME280;40825;52.270;20.984;2022-12-18T04:36:27;102252.48;;;-5.34;83.77
54924;BME280;40825;52.270;20.984;2022-12-18T04:38:53;102249.48;;;-5.39;83.85
54924;BME280;40825;52.270;20.984;2022-12-18T04:41:18;102254.64;;;-5.43;83.82
54924;BME280;40825;52.270;20.984;2022-12-18T04:43:44;102255.67;;;-5.50;83.79
54924;BME280;40825;52.270;20.984;2022-12-18T04:46:09;102259.12;;;-5.56;83.85
54924;BME280;40825;52.270;20.984;2022-12-18T04:48:35;102263.75;;;-5.60;83.82
54924;BME280;40825;52.270;20.984;2022-12-18T04:51:04;102269.79;;;-5.66;83.82
54924;BME280;40825;52.270;20.984;2022-12-18T04:53:29;102268.36;;;-5.72;83.68
54924;BME280;40825;52.270;20.984;2022-12-18T04:56:04;102275.80;;;-5.78;83.65
54924;BME280;40825;52.270;20.984;2022-12-18T04:58:29;102277.51;;;-5.84;83.70
54924;BME280;40825;52.270;20.984;2022-12-18T05:00:55;102278.85;;;-5.89;83.57
54924;BME280;40825;52.270;20.984;2022-12-18T05:03:20;102283.13;;;-5.94;83.56
54924;BME280;40825;52.270;20.984;2022-12-18T05:05:49;102286.47;;;-6.03;83.54
54924;BME280;40825;52.270;20.984;2022-12-18T05:08:15;102289.52;;;-6.14;83.49
54924;BME280;40825;52.270;20.984;2022-12-18T05:10:40;102290.45;;;-6.25;83.45
54924;BME280;40825;52.270;20.984;2022-12-18T05:13:05;102297.92;;;-6.34;83.51
54924;BME280;40825;52.270;20.984;2022-12-18T05:15:32;102304.28;;;-6.40;83.57
54924;BME280;40825;52.270;20.984;2022-12-18T05:17:59;102301.80;;;-6.44;83.58
54924;BME280;40825;52.270;20.984;2022-12-18T05:20:25;102302.56;;;-6.49;83.55
54924;BME280;40825;52.270;20.984;2022-12-18T05:22:52;102305.06;;;-6.52;83.61
54924;BME280;40825;52.270;20.984;2022-12-18T05:25:18;102313.07;;;-6.53;83.68
54924;BME280;40825;52.270;20.984;2022-12-18T05:27:44;102317.64;;;-6.56;83.65
54924;BME280;40825;52.270;20.984;2022-12-18T05:30:11;102318.42;;;-6.62;83.59
54924;BME280;40825;52.270;20.984;2022-12-18T05:32:36;102322.80;;;-6.64;83.74
54924;BME280;40825;52.270;20.984;2022-12-18T05:35:03;102324.00;;;-6.63;83.82
54924;BME280;40825;52.270;20.984;2022-12-18T05:37:28;102331.09;;;-6.63;83.96
54924;BME280;40825;52.270;20.984;2022-12-18T05:39:54;102333.13;;;-6.61;83.95
54924;BME280;40825;52.270;20.984;2022-12-18T05:42:19;102337.76;;;-6.58;84.03
54924;BME280;40825;52.270;20.984;2022-12-18T05:44:45;102339.52;;;-6.59;83.88
54924;BME280;40825;52.270;20.984;2022-12-18T05:47:10;102344.08;;;-6.62;84.02
54924;BME280;40825;52.270;20.984;2022-12-18T05:49:36;102350.14;;;-6.63;84.04
54924;BME280;40825;52.270;20.984;2022-12-18T05:52:01;102355.14;;;-6.61;84.11
54924;BME280;40825;52.270;20.984;2022-12-18T05:54:27;102359.58;;;-6.58;84.23
54924;BME280;40825;52.270;20.984;2022-12-18T05:56:53;102354.52;;;-6.56;84.20
54924;BME280;40825;52.270;20.984;2022-12-18T05:59:19;102355.51;;;-6.53;84.37
54924;BME280;40825;52.270;20.984;2022-12-18T06:01:45;102359.93;;;-6.50;84.45
54924;BME280;40825;52.270;20.984;2022-12-18T06:04:10;102358.64;;;-6.46;84.29
54924;BME280;40825;52.270;20.984;2022-12-18T06:06:36;102360.81;;;-6.42;84.26
54924;BME280;40825;52.270;20.984;2022-12-18T06:09:02;102365.78;;;-6.39;84.28
54924;BME280;40825;52.270;20.984;2022-12-18T06:11:37;102369.33;;;-6.35;84.33
54924;BME280;40825;52.270;20.984;2022-12-18T06:14:04;102371.48;;;-6.30;84.53
54924;BME280;40825;52.270;20.984;2022-12-18T06:16:30;102377.67;;;-6.27;84.56
54924;BME280;40825;52.270;20.984;2022-12-18T06:18:57;102380.36;;;-6.24;84.58
54924;BME280;40825;52.270;20.984;2022-12-18T06:21:23;102386.23;;;-6.23;84.58
54924;BME280;40825;52.270;20.984;2022-12-18T06:23:48;102388.98;;;-6.21;84.63
54924;BME280;40825;52.270;20.984;2022-12-18T06:26:14;102389.27;;;-6.18;84.70
54924;BME280;40825;52.270;20.984;2022-12-18T06:28:42;102399.05;;;-6.14;84.61
54924;BME280;40825;52.270;20.984;2022-12-18T06:31:08;102405.90;;;-6.11;84.69
54924;BME280;40825;52.270;20.984;2022-12-18T06:33:35;102410.18;;;-6.07;84.58
54924;BME280;40825;52.270;20.984;2022-12-18T06:36:03;102415.84;;;-6.04;84.62
54924;BME280;40825;52.270;20.984;2022-12-18T06:38:29;102417.33;;;-6.01;84.68
54924;BME280;40825;52.270;20.984;2022-12-18T06:40:54;102425.73;;;-5.98;84.75
54924;BME280;40825;52.270;20.984;2022-12-18T06:43:20;102426.88;;;-5.95;84.77
54924;BME280;40825;52.270;20.984;2022-12-18T06:45:45;102427.16;;;-5.91;84.85
54924;BME280;40825;52.270;20.984;2022-12-18T06:48:14;102433.35;;;-5.90;84.89
54924;BME280;40825;52.270;20.984;2022-12-18T06:50:42;102438.84;;;-5.87;84.88
54924;BME280;40825;52.270;20.984;2022-12-18T06:53:08;102440.49;;;-5.83;84.90
54924;BME280;40825;52.270;20.984;2022-12-18T06:55:33;102443.85;;;-5.78;84.92
54924;BME280;40825;52.270;20.984;2022-12-18T06:57:58;102449.33;;;-5.74;84.85
54924;BME280;40825;52.270;20.984;2022-12-18T07:00:24;102455.36;;;-5.73;84.86
54924;BME280;40825;52.270;20.984;2022-12-18T07:02:49;102453.73;;;-5.70;84.85
54924;BME280;40825;52.270;20.984;2022-12-18T07:05:15;102459.20;;;-5.66;84.76
54924;BME280;40825;52.270;20.984;2022-12-18T07:07:40;102460.55;;;-5.64;84.83
54924;BME280;40825;52.270;20.984;2022-12-18T07:10:06;102461.90;;;-5.62;84.82
54924;BME280;40825;52.270;20.984;2022-12-18T07:12:31;102464.30;;;-5.60;84.89
54924;BME280;40825;52.270;20.984;2022-12-18T07:14:57;102468.45;;;-5.60;84.80
54924;BME280;40825;52.270;20.984;2022-12-18T07:17:22;102475.81;;;-5.57;84.98
54924;BME280;40825;52.270;20.984;2022-12-18T07:19:48;102474.55;;;-5.54;84.94
54924;BME280;40825;52.270;20.984;2022-12-18T07:22:13;102485.90;;;-5.48;85.00
54924;BME280;40825;52.270;20.984;2022-12-18T07:24:38;102486.98;;;-5.44;85.02
54924;BME280;40825;52.270;20.984;2022-12-18T07:27:04;102493.91;;;-5.43;85.07
54924;BME280;40825;52.270;20.984;2022-12-18T07:29:29;102492.31;;;-5.41;84.97
54924;BME280;40825;52.270;20.984;2022-12-18T07:31:55;102490.23;;;-5.41;84.91
54924;BME280;40825;52.270;20.984;2022-12-18T07:34:20;102490.75;;;-5.41;84.94
54924;BME280;40825;52.270;20.984;2022-12-18T07:36:46;102492.54;;;-5.44;84.98
54924;BME280;40825;52.270;20.984;2022-12-18T07:39:11;102497.73;;;-5.43;84.99
54924;BME280;40825;52.270;20.984;2022-12-18T07:41:37;102500.28;;;-5.41;85.09
54924;BME280;40825;52.270;20.984;2022-12-18T07:44:02;102505.45;;;-5.39;85.00
54924;BME280;40825;52.270;20.984;2022-12-18T07:46:28;102506.16;;;-5.40;85.05
54924;BME280;40825;52.270;20.984;2022-12-18T07:48:53;102512.39;;;-5.39;84.98
54924;BME280;40825;52.270;20.984;2022-12-18T07:51:19;102519.58;;;-5.34;85.02
54924;BME280;40825;52.270;20.984;2022-12-18T07:53:44;102523.46;;;-5.30;84.93
54924;BME280;40825;52.270;20.984;2022-12-18T07:56:12;102528.01;;;-5.23;84.99
54924;BME280;40825;52.270;20.984;2022-12-18T07:58:38;102537.73;;;-5.16;85.07
54924;BME280;40825;52.270;20.984;2022-12-18T08:01:09;102539.98;;;-5.07;85.08
54924;BME280;40825;52.270;20.984;2022-12-18T08:03:36;102548.89;;;-4.96;85.05
54924;BME280;40825;52.270;20.984;2022-12-18T08:06:03;102550.04;;;-4.85;85.18
54924;BME280;40825;52.270;20.984;2022-12-18T08:08:30;102554.78;;;-4.72;85.19
54924;BME280;40825;52.270;20.984;2022-12-18T08:10:56;102555.91;;;-4.62;85.22
54924;BME280;40825;52.270;20.984;2022-12-18T08:13:23;102559.02;;;-4.53;85.22
54924;BME280;40825;52.270;20.984;2022-12-18T08:16:03;102554.05;;;-4.50;85.27
54924;BME280;40825;52.270;20.984;2022-12-18T08:18:29;102554.61;;;-4.45;85.31
54924;BME280;40825;52.270;20.984;2022-12-18T08:20:55;102557.77;;;-4.39;85.50
54924;BME280;40825;52.270;20.984;2022-12-18T08:23:21;102561.81;;;-4.33;85.41
54924;BME280;40825;52.270;20.984;2022-12-18T08:25:46;102565.94;;;-4.32;85.29
54924;BME280;40825;52.270;20.984;2022-12-18T08:28:12;102567.28;;;-4.30;85.34
54924;BME280;40825;52.270;20.984;2022-12-18T08:30:37;102574.98;;;-4.24;85.24
54924;BME280;40825;52.270;20.984;2022-12-18T08:33:03;102581.32;;;-4.22;85.22
54924;BME280;40825;52.270;20.984;2022-12-18T08:35:28;102591.20;;;-4.20;85.27
54924;BME280;40825;52.270;20.984;2022-12-18T08:37:54;102591.89;;;-4.20;85.19
54924;BME280;40825;52.270;20.984;2022-12-18T08:40:19;102595.15;;;-4.18;85.19
54924;BME280;40825;52.270;20.984;2022-12-18T08:42:45;102598.68;;;-4.14;85.16
54924;BME280;40825;52.270;20.984;2022-12-18T08:45:29;102600.48;;;-4.10;85.05
54924;BME280;40825;52.270;20.984;2022-12-18T08:47:54;102602.63;;;-4.05;84.98
54924;BME280;40825;52.270;20.984;2022-12-18T08:50:20;102600.77;;;-3.94;85.05
54924;BME280;40825;52.270;20.984;2022-12-18T08:52:45;102604.10;;;-3.82;84.94
54924;BME280;40825;52.270;20.984;2022-12-18T08:55:11;102602.31;;;-3.74;84.87
54924;BME280;40825;52.270;20.984;2022-12-18T08:57:36;102609.05;;;-3.72;84.88
54924;BME280;40825;52.270;20.984;2022-12-18T09:00:03;102611.66;;;-3.72;84.93
54924;BME280;40825;52.270;20.984;2022-12-18T09:02:29;102607.93;;;-3.75;84.95
54924;BME280;40825;52.270;20.984;2022-12-18T09:04:54;102613.34;;;-3.76;84.93
54924;BME280;40825;52.270;20.984;2022-12-18T09:07:20;102612.22;;;-3.80;84.92
54924;BME280;40825;52.270;20.984;2022-12-18T09:09:45;102612.61;;;-3.81;84.76
54924;BME280;40825;52.270;20.984;2022-12-18T09:12:10;102622.35;;;-3.81;84.57
54924;BME280;40825;52.270;20.984;2022-12-18T09:14:36;102627.87;;;-3.79;84.57
54924;BME280;40825;52.270;20.984;2022-12-18T09:17:01;102626.08;;;-3.77;84.27
54924;BME280;40825;52.270;20.984;2022-12-18T09:19:27;102627.45;;;-3.76;84.26
54924;BME280;40825;52.270;20.984;2022-12-18T09:21:52;102630.23;;;-3.76;84.13
54924;BME280;40825;52.270;20.984;2022-12-18T09:24:18;102630.56;;;-3.76;83.97
54924;BME280;40825;52.270;20.984;2022-12-18T09:26:44;102631.08;;;-3.69;84.46
54924;BME280;40825;52.270;20.984;2022-12-18T09:29:09;102631.67;;;-3.53;84.79
54924;BME280;40825;52.270;20.984;2022-12-18T09:31:35;102629.40;;;-3.28;84.85
54924;BME280;40825;52.270;20.984;2022-12-18T09:34:01;102627.34;;;-3.11;84.70
54924;BME280;40825;52.270;20.984;2022-12-18T09:36:27;102630.45;;;-3.04;84.80
54924;BME280;40825;52.270;20.984;2022-12-18T09:38:53;102637.35;;;-2.96;84.53
54924;BME280;40825;52.270;20.984;2022-12-18T09:44:17;102625.15;;;-3.02;83.39
54924;BME280;40825;52.270;20.984;2022-12-18T09:46:47;102629.05;;;-2.92;84.26
54924;BME280;40825;52.270;20.984;2022-12-18T09:49:18;102630.67;;;-2.83;84.08
54924;BME280;40825;52.270;20.984;2022-12-18T09:52:08;102636.19;;;-2.81;84.39
54924;BME280;40825;52.270;20.984;2022-12-18T09:54:38;102638.93;;;-2.74;84.22
54924;BME280;40825;52.270;20.984;2022-12-18T09:57:05;102645.61;;;-2.65;84.32
54924;BME280;40825;52.270;20.984;2022-12-18T09:59:35;102641.83;;;-2.60;84.44
54924;BME280;40825;52.270;20.984;2022-12-18T10:02:19;102635.16;;;-2.54;84.45
54924;BME280;40825;52.270;20.984;2022-12-18T10:05:05;102636.88;;;-2.42;84.33
54924;BME280;40825;52.270;20.984;2022-12-18T10:07:47;102643.84;;;-2.36;84.09
54924;BME280;40825;52.270;20.984;2022-12-18T10:21:18;102660.62;;;-2.54;83.45
54924;BME280;40825;52.270;20.984;2022-12-18T10:24:35;102661.39;;;-2.56;83.57
54924;BME280;40825;52.270;20.984;2022-12-18T10:26:41;102662.15;;;-2.58;83.29
54924;BME280;40825;52.270;20.984;2022-12-18T10:29:16;102658.98;;;-2.62;83.40
54924;BME280;40825;52.270;20.984;2022-12-18T10:31:42;102656.61;;;-2.65;83.02
54924;BME280;40825;52.270;20.984;2022-12-18T10:34:11;102655.66;;;-2.68;83.11
54924;BME280;40825;52.270;20.984;2022-12-18T10:36:38;102655.95;;;-2.71;83.42
54924;BME280;40825;52.270;20.984;2022-12-18T10:39:21;102660.27;;;-2.71;83.55
54924;BME280;40825;52.270;20.984;2022-12-18T10:42:10;102656.59;;;-2.70;83.42
54924;BME280;40825;52.270;20.984;2022-12-18T10:44:38;102654.39;;;-2.66;83.48
54924;BME280;40825;52.270;20.984;2022-12-18T10:47:05;102654.64;;;-2.63;83.31
54924;BME280;40825;52.270;20.984;2022-12-18T10:49:33;102657.02;;;-2.67;82.87
54924;BME280;40825;52.270;20.984;2022-12-18T10:52:17;102649.05;;;-2.69;82.98
54924;BME280;40825;52.270;20.984;2022-12-18T10:54:58;102649.63;;;-2.54;82.72
54924;BME280;40825;52.270;20.984;2022-12-18T10:57:35;102653.59;;;-2.52;82.33
54924;BME280;40825;52.270;20.984;2022-12-18T11:00:28;102660.60;;;-2.53;82.60
54924;BME280;40825;52.270;20.984;2022-12-18T11:02:55;102664.81;;;-2.54;82.39
54924;BME280;40825;52.270;20.984;2022-12-18T11:05:33;102660.57;;;-2.52;82.90
54924;BME280;40825;52.270;20.984;2022-12-18T11:08:00;102660.08;;;-2.48;82.90
54924;BME280;40825;52.270;20.984;2022-12-18T11:10:38;102659.05;;;-2.42;82.91
54924;BME280;40825;52.270;20.984;2022-12-18T11:13:20;102667.31;;;-2.34;82.78
54924;BME280;40825;52.270;20.984;2022-12-18T11:15:47;102663.55;;;-2.36;82.68
54924;BME280;40825;52.270;20.984;2022-12-18T11:18:30;102663.62;;;-2.38;82.45
54924;BME280;40825;52.270;20.984;2022-12-18T11:21:04;102661.83;;;-2.37;80.94
54924;BME280;40825;52.270;20.984;2022-12-18T11:23:31;102663.79;;;-2.49;81.31
54924;BME280;40825;52.270;20.984;2022-12-18T11:26:02;102663.77;;;-2.54;82.08
54924;BME280;40825;52.270;20.984;2022-12-18T11:28:51;102668.39;;;-2.40;82.43
54924;BME280;40825;52.270;20.984;2022-12-18T11:31:27;102667.48;;;-2.34;82.05
54924;BME280;40825;52.270;20.984;2022-12-18T11:36:40;102673.03;;;-2.33;82.47
54924;BME280;40825;52.270;20.984;2022-12-18T11:39:37;102669.73;;;-2.33;82.28
54924;BME280;40825;52.270;20.984;2022-12-18T11:42:04;102664.21;;;-2.35;82.17
54924;BME280;40825;52.270;20.984;2022-12-18T11:45:00;102664.78;;;-2.36;82.16
54924;BME280;40825;52.270;20.984;2022-12-18T11:53:03;102668.52;;;-2.12;81.88
54924;BME280;40825;52.270;20.984;2022-12-18T11:55:45;102673.01;;;-2.16;81.63
54924;BME280;40825;52.270;20.984;2022-12-18T12:01:02;102679.56;;;-2.25;79.84
54924;BME280;40825;52.270;20.984;2022-12-18T12:06:23;102685.10;;;-2.39;81.52
54924;BME280;40825;52.270;20.984;2022-12-18T12:09:08;102688.20;;;-2.33;81.53
54924;BME280;40825;52.270;20.984;2022-12-18T12:11:47;102677.96;;;-2.23;81.47
54924;BME280;40825;52.270;20.984;2022-12-18T12:17:06;102676.30;;;-2.37;80.16
54924;BME280;40825;52.270;20.984;2022-12-18T12:25:23;102675.57;;;-2.46;80.77
54924;BME280;40825;52.270;20.984;2022-12-18T12:30:51;102691.11;;;-2.47;80.66
54924;BME280;40825;52.270;20.984;2022-12-18T12:33:23;102690.26;;;-2.54;80.60
54924;BME280;40825;52.270;20.984;2022-12-18T12:36:05;102694.77;;;-2.64;80.66
54924;BME280;40825;52.270;20.984;2022-12-18T12:38:43;102706.36;;;-2.73;80.57
54924;BME280;40825;52.270;20.984;2022-12-18T12:41:14;102705.27;;;-2.77;80.21
54924;BME280;40825;52.270;20.984;2022-12-18T12:44:04;102708.55;;;-2.83;80.70
54924;BME280;40825;52.270;20.984;2022-12-18T12:46:36;102710.75;;;-2.80;80.82
54924;BME280;40825;52.270;20.984;2022-12-18T12:49:10;102714.31;;;-2.83;80.33
54924;BME280;40825;52.270;20.984;2022-12-18T12:51:40;102715.23;;;-2.90;80.57
54924;BME280;40825;52.270;20.984;2022-12-18T12:54:23;102710.27;;;-2.88;80.76
54924;BME280;40825;52.270;20.984;2022-12-18T13:02:34;102730.45;;;-2.86;80.60
54924;BME280;40825;52.270;20.984;2022-12-18T13:05:12;102739.01;;;-2.86;80.79
54924;BME280;40825;52.270;20.984;2022-12-18T13:08:04;102742.08;;;-2.91;80.90
54924;BME280;40825;52.270;20.984;2022-12-18T13:10:39;102745.45;;;-2.93;80.98
54924;BME280;40825;52.270;20.984;2022-12-18T13:13:12;102747.75;;;-2.94;81.01
54924;BME280;40825;52.270;20.984;2022-12-18T13:15:48;102751.50;;;-2.97;81.02
54924;BME280;40825;52.270;20.984;2022-12-18T13:18:16;102754.59;;;-3.02;80.27
54924;BME280;40825;52.270;20.984;2022-12-18T13:21:10;102760.30;;;-3.13;80.12
54924;BME280;40825;52.270;20.984;2022-12-18T13:23:33;102762.21;;;-3.25;80.19
54924;BME280;40825;52.270;20.984;2022-12-18T13:31:10;102755.16;;;-3.55;80.57
54924;BME280;40825;52.270;20.984;2022-12-18T13:33:38;102760.58;;;-3.56;80.60
54924;BME280;40825;52.270;20.984;2022-12-18T13:36:26;102761.71;;;-3.60;80.53
54924;BME280;40825;52.270;20.984;2022-12-18T13:39:21;102768.16;;;-3.67;80.55
54924;BME280;40825;52.270;20.984;2022-12-18T13:44:55;102774.06;;;-3.81;80.70
54924;BME280;40825;52.270;20.984;2022-12-18T13:47:32;102772.73;;;-3.83;80.68
54924;BME280;40825;52.270;20.984;2022-12-18T13:49:59;102772.29;;;-3.86;80.62
54924;BME280;40825;52.270;20.984;2022-12-18T13:52:33;102782.83;;;-3.91;80.80
54924;BME280;40825;52.270;20.984;2022-12-18T13:55:02;102780.46;;;-3.94;80.81
54924;BME280;40825;52.270;20.984;2022-12-18T13:59:58;102790.68;;;-4.00;81.01
54924;BME280;40825;52.270;20.984;2022-12-18T14:02:26;102797.53;;;-4.09;80.99
54924;BME280;40825;52.270;20.984;2022-12-18T14:04:53;102800.49;;;-4.17;80.94
54924;BME280;40825;52.270;20.984;2022-12-18T14:07:21;102798.48;;;-4.21;81.02
54924;BME280;40825;52.270;20.984;2022-12-18T14:09:54;102796.66;;;-4.25;80.97
54924;BME280;40825;52.270;20.984;2022-12-18T14:18:20;102804.58;;;-4.30;81.16
54924;BME280;40825;52.270;20.984;2022-12-18T14:20:48;102807.70;;;-4.29;81.21